Huttonsville, West Virginia
Current Conditions -  °F | °C
As of 4:51 PM on Thursday 18 Dec 2014 (Local Time) from KEKN Reporting Station
Overcast Overcast  
Wind Chill: 20°   Ceiling: 1800
Heat Index: 27°   Visibility: 10mi
Dew Point: 21°   Wind: 6mph
Humidity: 78%   Direction: 310°NW
Pressure: 30.13"   Gusts: NA
Location:  38.71°N, 79.98°W
Report Text: KEKN 182151Z AUTO 31005KT 10SM OVC018 M03/M06 A3013 RMK AO2 SLP230 T10281061 TSNO
Loading
Personal Weather Stations






























Interactive Weather Map New forecast layout! Learn more

10-Day Weather Forecast

Advertisements
Track Severe Weather on mobile